sensor_id;sensor_type;location;lat;lon;timestamp;P1;durP1;ratioP1;P2;durP2;ratioP2
74102;SDS011;62853;46.166;3.640;2023-04-12T00:02:20;4.25;;;1.42;;
74102;SDS011;62853;46.166;3.640;2023-04-12T00:04:45;3.53;;;1.30;;
74102;SDS011;62853;46.166;3.640;2023-04-12T00:07:13;4.20;;;1.42;;
74102;SDS011;62853;46.166;3.640;2023-04-12T00:09:38;5.05;;;1.50;;
74102;SDS011;62853;46.166;3.640;2023-04-12T00:12:04;1.90;;;0.90;;
74102;SDS011;62853;46.166;3.640;2023-04-12T00:14:30;3.38;;;1.10;;
74102;SDS011;62853;46.166;3.640;2023-04-12T00:16:58;4.70;;;1.55;;
74102;SDS011;62853;46.166;3.640;2023-04-12T00:19:23;4.15;;;1.73;;
74102;SDS011;62853;46.166;3.640;2023-04-12T00:21:51;4.90;;;1.15;;
74102;SDS011;62853;46.166;3.640;2023-04-12T00:24:17;2.22;;;0.90;;
74102;SDS011;62853;46.166;3.640;2023-04-12T00:26:43;7.72;;;1.20;;
74102;SDS011;62853;46.166;3.640;2023-04-12T00:29:08;6.45;;;1.23;;
74102;SDS011;62853;46.166;3.640;2023-04-12T00:31:34;4.25;;;1.05;;
74102;SDS011;62853;46.166;3.640;2023-04-12T00:33:59;3.65;;;1.10;;
74102;SDS011;62853;46.166;3.640;2023-04-12T00:36:25;8.80;;;1.58;;
74102;SDS011;62853;46.166;3.640;2023-04-12T00:38:51;5.18;;;1.17;;
74102;SDS011;62853;46.166;3.640;2023-04-12T00:41:16;3.05;;;1.02;;
74102;SDS011;62853;46.166;3.640;2023-04-12T00:43:45;4.55;;;1.13;;
74102;SDS011;62853;46.166;3.640;2023-04-12T00:46:11;5.13;;;1.33;;
74102;SDS011;62853;46.166;3.640;2023-04-12T00:48:37;2.47;;;1.00;;
74102;SDS011;62853;46.166;3.640;2023-04-12T00:51:03;4.25;;;1.30;;
74102;SDS011;62853;46.166;3.640;2023-04-12T00:53:30;3.45;;;0.90;;
74102;SDS011;62853;46.166;3.640;2023-04-12T00:55:57;3.58;;;0.90;;
74102;SDS011;62853;46.166;3.640;2023-04-12T00:58:25;6.95;;;1.30;;
74102;SDS011;62853;46.166;3.640;2023-04-12T01:00:50;6.43;;;1.13;;
74102;SDS011;62853;46.166;3.640;2023-04-12T01:03:20;4.18;;;0.98;;
74102;SDS011;62853;46.166;3.640;2023-04-12T01:11:44;4.80;;;1.55;;
74102;SDS011;62853;46.166;3.640;2023-04-12T01:17:25;3.03;;;1.23;;
74102;SDS011;62853;46.166;3.640;2023-04-12T01:20:02;3.33;;;1.02;;
74102;SDS011;62853;46.166;3.640;2023-04-12T01:25:50;5.28;;;1.73;;
74102;SDS011;62853;46.166;3.640;2023-04-12T01:28:33;4.82;;;1.10;;
74102;SDS011;62853;46.166;3.640;2023-04-12T01:31:02;6.45;;;1.73;;
74102;SDS011;62853;46.166;3.640;2023-04-12T01:33:30;6.40;;;1.50;;
74102;SDS011;62853;46.166;3.640;2023-04-12T01:35:58;7.15;;;1.92;;
74102;SDS011;62853;46.166;3.640;2023-04-12T01:38:27;1.95;;;1.00;;
74102;SDS011;62853;46.166;3.640;2023-04-12T01:40:53;3.55;;;1.00;;
74102;SDS011;62853;46.166;3.640;2023-04-12T01:43:19;4.03;;;1.25;;
74102;SDS011;62853;46.166;3.640;2023-04-12T01:45:45;5.88;;;1.20;;
74102;SDS011;62853;46.166;3.640;2023-04-12T01:48:11;6.70;;;1.27;;
74102;SDS011;62853;46.166;3.640;2023-04-12T01:53:27;5.80;;;0.93;;
74102;SDS011;62853;46.166;3.640;2023-04-12T01:56:06;3.25;;;1.02;;
74102;SDS011;62853;46.166;3.640;2023-04-12T01:58:32;3.10;;;0.90;;
74102;SDS011;62853;46.166;3.640;2023-04-12T02:00:59;5.13;;;0.98;;
74102;SDS011;62853;46.166;3.640;2023-04-12T02:03:27;6.38;;;0.98;;
74102;SDS011;62853;46.166;3.640;2023-04-12T02:05:59;7.05;;;1.48;;
74102;SDS011;62853;46.166;3.640;2023-04-12T02:08:25;6.53;;;1.23;;
74102;SDS011;62853;46.166;3.640;2023-04-12T02:10:51;1.70;;;0.75;;
74102;SDS011;62853;46.166;3.640;2023-04-12T02:13:16;3.53;;;1.17;;
74102;SDS011;62853;46.166;3.640;2023-04-12T02:15:42;4.22;;;1.15;;
74102;SDS011;62853;46.166;3.640;2023-04-12T02:18:08;4.07;;;1.00;;
74102;SDS011;62853;46.166;3.640;2023-04-12T02:20:35;2.45;;;0.90;;
74102;SDS011;62853;46.166;3.640;2023-04-12T02:23:01;3.42;;;1.30;;
74102;SDS011;62853;46.166;3.640;2023-04-12T02:25:26;4.03;;;1.00;;
74102;SDS011;62853;46.166;3.640;2023-04-12T02:27:51;6.15;;;1.23;;
74102;SDS011;62853;46.166;3.640;2023-04-12T02:30:17;3.50;;;1.17;;
74102;SDS011;62853;46.166;3.640;2023-04-12T02:32:42;7.68;;;1.35;;
74102;SDS011;62853;46.166;3.640;2023-04-12T02:35:18;1.60;;;0.80;;
74102;SDS011;62853;46.166;3.640;2023-04-12T02:37:44;3.65;;;1.00;;
74102;SDS011;62853;46.166;3.640;2023-04-12T02:40:12;5.28;;;1.00;;
74102;SDS011;62853;46.166;3.640;2023-04-12T02:42:41;2.35;;;0.85;;
74102;SDS011;62853;46.166;3.640;2023-04-12T02:45:08;3.58;;;1.10;;
74102;SDS011;62853;46.166;3.640;2023-04-12T02:47:34;2.65;;;0.80;;
74102;SDS011;62853;46.166;3.640;2023-04-12T02:50:00;4.13;;;0.90;;
74102;SDS011;62853;46.166;3.640;2023-04-12T02:52:26;1.65;;;0.68;;
74102;SDS011;62853;46.166;3.640;2023-04-12T02:54:54;3.17;;;1.35;;
74102;SDS011;62853;46.166;3.640;2023-04-12T02:57:19;4.75;;;0.80;;
74102;SDS011;62853;46.166;3.640;2023-04-12T02:59:49;3.78;;;1.10;;
74102;SDS011;62853;46.166;3.640;2023-04-12T03:02:17;3.92;;;0.93;;
74102;SDS011;62853;46.166;3.640;2023-04-12T03:04:46;2.33;;;0.93;;
74102;SDS011;62853;46.166;3.640;2023-04-12T03:07:19;2.25;;;0.90;;
74102;SDS011;62853;46.166;3.640;2023-04-12T03:09:46;1.33;;;0.75;;
74102;SDS011;62853;46.166;3.640;2023-04-12T03:12:12;2.72;;;0.63;;
74102;SDS011;62853;46.166;3.640;2023-04-12T03:14:38;3.08;;;1.13;;
74102;SDS011;62853;46.166;3.640;2023-04-12T03:17:04;2.65;;;0.75;;
74102;SDS011;62853;46.166;3.640;2023-04-12T03:19:29;3.05;;;0.93;;
74102;SDS011;62853;46.166;3.640;2023-04-12T03:21:57;3.22;;;0.95;;
74102;SDS011;62853;46.166;3.640;2023-04-12T03:24:23;7.30;;;1.00;;
74102;SDS011;62853;46.166;3.640;2023-04-12T03:26:48;2.08;;;0.95;;
74102;SDS011;62853;46.166;3.640;2023-04-12T03:29:14;3.65;;;1.00;;
74102;SDS011;62853;46.166;3.640;2023-04-12T03:31:40;3.97;;;0.80;;
74102;SDS011;62853;46.166;3.640;2023-04-12T03:34:05;3.03;;;0.70;;
74102;SDS011;62853;46.166;3.640;2023-04-12T03:36:32;2.58;;;0.70;;
74102;SDS011;62853;46.166;3.640;2023-04-12T03:38:57;1.27;;;0.70;;
74102;SDS011;62853;46.166;3.640;2023-04-12T03:41:24;4.82;;;1.00;;
74102;SDS011;62853;46.166;3.640;2023-04-12T03:43:50;2.75;;;0.70;;
74102;SDS011;62853;46.166;3.640;2023-04-12T03:46:16;2.28;;;0.75;;
74102;SDS011;62853;46.166;3.640;2023-04-12T03:48:42;1.27;;;0.80;;
74102;SDS011;62853;46.166;3.640;2023-04-12T03:51:07;5.07;;;0.85;;
74102;SDS011;62853;46.166;3.640;2023-04-12T03:53:38;3.00;;;0.90;;
74102;SDS011;62853;46.166;3.640;2023-04-12T03:56:04;3.70;;;0.70;;
74102;SDS011;62853;46.166;3.640;2023-04-12T03:58:30;3.05;;;0.82;;
74102;SDS011;62853;46.166;3.640;2023-04-12T04:00:58;1.98;;;0.60;;
74102;SDS011;62853;46.166;3.640;2023-04-12T04:03:25;6.10;;;0.82;;
74102;SDS011;62853;46.166;3.640;2023-04-12T04:05:53;3.13;;;0.77;;
74102;SDS011;62853;46.166;3.640;2023-04-12T04:08:19;2.55;;;0.52;;
74102;SDS011;62853;46.166;3.640;2023-04-12T04:10:45;2.70;;;1.15;;
74102;SDS011;62853;46.166;3.640;2023-04-12T04:13:11;1.50;;;0.85;;
74102;SDS011;62853;46.166;3.640;2023-04-12T04:15:36;3.88;;;0.77;;
74102;SDS011;62853;46.166;3.640;2023-04-12T04:18:02;1.30;;;0.60;;
74102;SDS011;62853;46.166;3.640;2023-04-12T04:20:27;3.15;;;1.15;;
74102;SDS011;62853;46.166;3.640;2023-04-12T04:22:53;1.40;;;0.50;;
74102;SDS011;62853;46.166;3.640;2023-04-12T04:25:18;2.15;;;0.70;;
74102;SDS011;62853;46.166;3.640;2023-04-12T04:27:43;3.20;;;0.80;;
74102;SDS011;62853;46.166;3.640;2023-04-12T04:30:10;1.23;;;0.70;;
74102;SDS011;62853;46.166;3.640;2023-04-12T04:32:37;1.02;;;0.70;;
74102;SDS011;62853;46.166;3.640;2023-04-12T04:35:03;2.20;;;0.90;;
74102;SDS011;62853;46.166;3.640;2023-04-12T04:37:29;3.78;;;0.80;;
74102;SDS011;62853;46.166;3.640;2023-04-12T04:39:56;5.60;;;0.90;;
74102;SDS011;62853;46.166;3.640;2023-04-12T04:42:21;2.35;;;0.75;;
74102;SDS011;62853;46.166;3.640;2023-04-12T04:44:48;2.42;;;0.60;;
74102;SDS011;62853;46.166;3.640;2023-04-12T04:47:15;1.63;;;0.80;;
74102;SDS011;62853;46.166;3.640;2023-04-12T04:49:41;6.60;;;0.85;;
74102;SDS011;62853;46.166;3.640;2023-04-12T04:52:07;3.08;;;0.80;;
74102;SDS011;62853;46.166;3.640;2023-04-12T04:54:33;1.25;;;1.02;;
74102;SDS011;62853;46.166;3.640;2023-04-12T04:56:59;3.22;;;1.10;;
74102;SDS011;62853;46.166;3.640;2023-04-12T04:59:25;4.18;;;1.67;;
74102;SDS011;62853;46.166;3.640;2023-04-12T05:01:51;2.83;;;0.90;;
74102;SDS011;62853;46.166;3.640;2023-04-12T05:04:16;4.82;;;1.15;;
74102;SDS011;62853;46.166;3.640;2023-04-12T05:06:42;5.72;;;1.38;;
74102;SDS011;62853;46.166;3.640;2023-04-12T05:09:07;3.67;;;1.10;;
74102;SDS011;62853;46.166;3.640;2023-04-12T05:11:33;5.32;;;1.20;;
74102;SDS011;62853;46.166;3.640;2023-04-12T05:13:58;3.85;;;1.02;;
74102;SDS011;62853;46.166;3.640;2023-04-12T05:16:24;4.75;;;1.10;;
74102;SDS011;62853;46.166;3.640;2023-04-12T05:18:49;6.70;;;1.40;;
74102;SDS011;62853;46.166;3.640;2023-04-12T05:21:15;2.50;;;1.02;;
74102;SDS011;62853;46.166;3.640;2023-04-12T05:23:41;4.53;;;1.98;;
74102;SDS011;62853;46.166;3.640;2023-04-12T05:26:09;1.70;;;0.82;;
74102;SDS011;62853;46.166;3.640;2023-04-12T05:28:35;2.22;;;0.82;;
74102;SDS011;62853;46.166;3.640;2023-04-12T05:31:00;3.20;;;0.90;;
74102;SDS011;62853;46.166;3.640;2023-04-12T05:33:26;2.42;;;1.08;;
74102;SDS011;62853;46.166;3.640;2023-04-12T05:35:51;3.28;;;1.13;;
74102;SDS011;62853;46.166;3.640;2023-04-12T05:38:20;2.47;;;1.50;;
74102;SDS011;62853;46.166;3.640;2023-04-12T05:40:48;2.95;;;1.05;;
74102;SDS011;62853;46.166;3.640;2023-04-12T05:43:16;4.80;;;1.00;;
74102;SDS011;62853;46.166;3.640;2023-04-12T05:45:42;3.30;;;1.02;;
74102;SDS011;62853;46.166;3.640;2023-04-12T05:48:07;2.28;;;1.00;;
74102;SDS011;62853;46.166;3.640;2023-04-12T05:50:33;3.03;;;0.90;;
74102;SDS011;62853;46.166;3.640;2023-04-12T05:53:01;0.98;;;0.73;;
74102;SDS011;62853;46.166;3.640;2023-04-12T05:55:27;2.97;;;1.10;;
74102;SDS011;62853;46.166;3.640;2023-04-12T05:57:53;2.25;;;1.05;;
74102;SDS011;62853;46.166;3.640;2023-04-12T06:00:19;1.75;;;1.02;;
74102;SDS011;62853;46.166;3.640;2023-04-12T06:02:46;2.38;;;1.05;;
74102;SDS011;62853;46.166;3.640;2023-04-12T06:05:13;2.72;;;1.13;;
74102;SDS011;62853;46.166;3.640;2023-04-12T06:07:39;2.72;;;0.95;;
74102;SDS011;62853;46.166;3.640;2023-04-12T06:10:10;2.58;;;0.90;;
74102;SDS011;62853;46.166;3.640;2023-04-12T06:12:37;2.80;;;0.95;;
74102;SDS011;62853;46.166;3.640;2023-04-12T06:15:03;1.23;;;0.80;;
74102;SDS011;62853;46.166;3.640;2023-04-12T06:17:29;1.63;;;1.10;;
74102;SDS011;62853;46.166;3.640;2023-04-12T06:19:55;1.80;;;0.60;;
74102;SDS011;62853;46.166;3.640;2023-04-12T06:22:20;1.35;;;0.80;;
74102;SDS011;62853;46.166;3.640;2023-04-12T06:24:45;1.60;;;1.08;;
74102;SDS011;62853;46.166;3.640;2023-04-12T06:27:11;3.03;;;1.17;;
74102;SDS011;62853;46.166;3.640;2023-04-12T06:29:39;4.15;;;0.80;;
74102;SDS011;62853;46.166;3.640;2023-04-12T06:32:06;4.65;;;0.85;;
74102;SDS011;62853;46.166;3.640;2023-04-12T06:34:34;0.98;;;0.85;;
74102;SDS011;62853;46.166;3.640;2023-04-12T06:37:00;3.20;;;0.90;;
74102;SDS011;62853;46.166;3.640;2023-04-12T06:39:25;1.58;;;1.35;;
74102;SDS011;62853;46.166;3.640;2023-04-12T06:41:51;1.52;;;1.00;;
74102;SDS011;62853;46.166;3.640;2023-04-12T06:44:16;1.85;;;1.00;;
74102;SDS011;62853;46.166;3.640;2023-04-12T06:46:42;1.70;;;0.70;;
74102;SDS011;62853;46.166;3.640;2023-04-12T06:49:07;2.50;;;0.70;;
74102;SDS011;62853;46.166;3.640;2023-04-12T06:51:32;3.40;;;0.93;;
74102;SDS011;62853;46.166;3.640;2023-04-12T06:54:01;1.60;;;1.05;;
74102;SDS011;62853;46.166;3.640;2023-04-12T06:56:29;2.22;;;1.15;;
74102;SDS011;62853;46.166;3.640;2023-04-12T06:58:55;2.97;;;1.00;;
74102;SDS011;62853;46.166;3.640;2023-04-12T07:01:23;2.45;;;0.77;;
74102;SDS011;62853;46.166;3.640;2023-04-12T07:03:48;3.08;;;1.30;;
74102;SDS011;62853;46.166;3.640;2023-04-12T07:06:16;3.05;;;2.03;;
74102;SDS011;62853;46.166;3.640;2023-04-12T07:08:41;3.17;;;2.00;;
74102;SDS011;62853;46.166;3.640;2023-04-12T07:11:07;3.13;;;2.60;;
74102;SDS011;62853;46.166;3.640;2023-04-12T07:13:32;7.63;;;3.50;;
74102;SDS011;62853;46.166;3.640;2023-04-12T07:16:00;5.53;;;3.10;;
74102;SDS011;62853;46.166;3.640;2023-04-12T07:18:25;7.82;;;3.10;;
74102;SDS011;62853;46.166;3.640;2023-04-12T07:20:53;5.88;;;2.85;;
74102;SDS011;62853;46.166;3.640;2023-04-12T07:23:21;4.32;;;2.50;;
74102;SDS011;62853;46.166;3.640;2023-04-12T07:25:51;4.90;;;2.85;;
74102;SDS011;62853;46.166;3.640;2023-04-12T07:28:17;3.28;;;2.35;;
74102;SDS011;62853;46.166;3.640;2023-04-12T07:30:43;4.93;;;2.28;;
74102;SDS011;62853;46.166;3.640;2023-04-12T07:33:09;2.10;;;1.90;;
74102;SDS011;62853;46.166;3.640;2023-04-12T07:35:34;6.88;;;2.33;;
74102;SDS011;62853;46.166;3.640;2023-04-12T07:38:00;5.47;;;2.55;;
74102;SDS011;62853;46.166;3.640;2023-04-12T07:40:25;5.90;;;2.30;;
74102;SDS011;62853;46.166;3.640;2023-04-12T07:42:51;4.85;;;2.70;;
74102;SDS011;62853;46.166;3.640;2023-04-12T07:45:17;5.80;;;2.78;;
74102;SDS011;62853;46.166;3.640;2023-04-12T07:47:43;5.28;;;2.70;;
74102;SDS011;62853;46.166;3.640;2023-04-12T07:50:11;5.80;;;2.83;;
74102;SDS011;62853;46.166;3.640;2023-04-12T07:52:37;5.07;;;3.28;;
74102;SDS011;62853;46.166;3.640;2023-04-12T07:55:03;9.60;;;4.05;;
74102;SDS011;62853;46.166;3.640;2023-04-12T07:57:34;7.60;;;3.45;;
74102;SDS011;62853;46.166;3.640;2023-04-12T08:00:00;11.63;;;2.88;;
74102;SDS011;62853;46.166;3.640;2023-04-12T08:02:25;10.00;;;2.78;;
74102;SDS011;62853;46.166;3.640;2023-04-12T08:04:51;5.38;;;2.80;;
74102;SDS011;62853;46.166;3.640;2023-04-12T08:07:20;5.88;;;3.50;;
74102;SDS011;62853;46.166;3.640;2023-04-12T08:09:51;8.02;;;3.80;;
74102;SDS011;62853;46.166;3.640;2023-04-12T08:12:16;7.13;;;3.28;;
74102;SDS011;62853;46.166;3.640;2023-04-12T08:14:42;7.65;;;3.47;;
74102;SDS011;62853;46.166;3.640;2023-04-12T08:17:10;10.40;;;3.90;;
74102;SDS011;62853;46.166;3.640;2023-04-12T08:19:35;6.65;;;3.53;;
74102;SDS011;62853;46.166;3.640;2023-04-12T08:22:01;9.20;;;4.05;;
74102;SDS011;62853;46.166;3.640;2023-04-12T08:24:27;8.00;;;4.88;;
74102;SDS011;62853;46.166;3.640;2023-04-12T08:26:52;11.52;;;5.13;;
74102;SDS011;62853;46.166;3.640;2023-04-12T08:29:18;10.93;;;4.40;;
74102;SDS011;62853;46.166;3.640;2023-04-12T08:31:45;10.45;;;5.28;;
74102;SDS011;62853;46.166;3.640;2023-04-12T08:34:14;8.82;;;4.20;;
74102;SDS011;62853;46.166;3.640;2023-04-12T08:36:42;12.15;;;5.32;;
74102;SDS011;62853;46.166;3.640;2023-04-12T08:39:07;16.20;;;6.78;;
74102;SDS011;62853;46.166;3.640;2023-04-12T08:41:33;11.25;;;6.20;;
74102;SDS011;62853;46.166;3.640;2023-04-12T08:44:00;12.25;;;5.72;;
74102;SDS011;62853;46.166;3.640;2023-04-12T08:46:28;13.73;;;5.82;;
74102;SDS011;62853;46.166;3.640;2023-04-12T08:48:54;16.10;;;6.93;;
74102;SDS011;62853;46.166;3.640;2023-04-12T08:51:21;12.43;;;6.20;;
74102;SDS011;62853;46.166;3.640;2023-04-12T08:53:46;12.80;;;6.65;;
74102;SDS011;62853;46.166;3.640;2023-04-12T08:56:15;14.70;;;5.97;;
74102;SDS011;62853;46.166;3.640;2023-04-12T08:58:44;20.98;;;5.68;;
74102;SDS011;62853;46.166;3.640;2023-04-12T09:01:11;14.48;;;5.07;;
74102;SDS011;62853;46.166;3.640;2023-04-12T09:03:40;16.70;;;5.13;;
74102;SDS011;62853;46.166;3.640;2023-04-12T09:06:07;14.48;;;4.78;;
74102;SDS011;62853;46.166;3.640;2023-04-12T09:08:33;15.98;;;6.88;;
74102;SDS011;62853;46.166;3.640;2023-04-12T09:11:03;22.60;;;5.63;;
74102;SDS011;62853;46.166;3.640;2023-04-12T09:13:48;21.50;;;5.85;;
74102;SDS011;62853;46.166;3.640;2023-04-12T09:16:20;12.43;;;6.00;;
74102;SDS011;62853;46.166;3.640;2023-04-12T09:18:58;14.93;;;5.82;;
74102;SDS011;62853;46.166;3.640;2023-04-12T09:21:26;17.08;;;6.65;;
74102;SDS011;62853;46.166;3.640;2023-04-12T09:24:10;15.60;;;6.93;;
74102;SDS011;62853;46.166;3.640;2023-04-12T09:26:40;15.10;;;6.32;;
74102;SDS011;62853;46.166;3.640;2023-04-12T09:29:22;20.02;;;6.85;;
74102;SDS011;62853;46.166;3.640;2023-04-12T09:34:34;16.17;;;6.15;;
74102;SDS011;62853;46.166;3.640;2023-04-12T09:37:12;18.85;;;7.07;;
74102;SDS011;62853;46.166;3.640;2023-04-12T09:39:41;23.70;;;6.28;;
74102;SDS011;62853;46.166;3.640;2023-04-12T09:42:11;25.77;;;7.88;;
74102;SDS011;62853;46.166;3.640;2023-04-12T09:44:39;22.70;;;6.60;;
74102;SDS011;62853;46.166;3.640;2023-04-12T09:47:05;22.70;;;7.60;;
74102;SDS011;62853;46.166;3.640;2023-04-12T09:52:03;16.33;;;6.28;;
74102;SDS011;62853;46.166;3.640;2023-04-12T09:54:36;21.92;;;5.88;;
74102;SDS011;62853;46.166;3.640;2023-04-12T09:57:05;17.55;;;5.93;;
74102;SDS011;62853;46.166;3.640;2023-04-12T09:59:38;24.20;;;6.20;;
74102;SDS011;62853;46.166;3.640;2023-04-12T10:02:15;17.00;;;6.60;;
74102;SDS011;62853;46.166;3.640;2023-04-12T10:04:42;26.48;;;6.10;;
74102;SDS011;62853;46.166;3.640;2023-04-12T10:07:11;17.60;;;6.40;;
74102;SDS011;62853;46.166;3.640;2023-04-12T10:09:37;18.85;;;6.97;;
74102;SDS011;62853;46.166;3.640;2023-04-12T10:12:04;24.20;;;6.43;;
74102;SDS011;62853;46.166;3.640;2023-04-12T10:14:30;25.77;;;5.63;;
74102;SDS011;62853;46.166;3.640;2023-04-12T10:17:05;23.20;;;5.97;;
74102;SDS011;62853;46.166;3.640;2023-04-12T10:19:33;17.95;;;5.32;;
74102;SDS011;62853;46.166;3.640;2023-04-12T10:21:59;19.02;;;5.28;;
74102;SDS011;62853;46.166;3.640;2023-04-12T10:24:26;16.05;;;4.50;;
74102;SDS011;62853;46.166;3.640;2023-04-12T10:26:57;14.32;;;4.40;;
74102;SDS011;62853;46.166;3.640;2023-04-12T10:29:30;20.63;;;5.50;;
74102;SDS011;62853;46.166;3.640;2023-04-12T10:32:17;17.98;;;5.32;;
74102;SDS011;62853;46.166;3.640;2023-04-12T10:34:58;18.33;;;5.00;;
74102;SDS011;62853;46.166;3.640;2023-04-12T10:40:21;19.20;;;5.63;;
74102;SDS011;62853;46.166;3.640;2023-04-12T10:42:56;23.88;;;5.93;;
74102;SDS011;62853;46.166;3.640;2023-04-12T10:45:46;17.35;;;5.50;;
74102;SDS011;62853;46.166;3.640;2023-04-12T10:48:32;20.77;;;5.72;;
74102;SDS011;62853;46.166;3.640;2023-04-12T10:51:15;28.42;;;5.47;;
74102;SDS011;62853;46.166;3.640;2023-04-12T10:53:51;13.70;;;4.32;;
74102;SDS011;62853;46.166;3.640;2023-04-12T10:56:38;12.82;;;4.60;;
74102;SDS011;62853;46.166;3.640;2023-04-12T10:59:13;12.07;;;5.35;;
74102;SDS011;62853;46.166;3.640;2023-04-12T11:01:39;16.52;;;5.15;;
74102;SDS011;62853;46.166;3.640;2023-04-12T11:04:24;13.90;;;5.20;;
74102;SDS011;62853;46.166;3.640;2023-04-12T11:09:29;12.15;;;4.20;;
74102;SDS011;62853;46.166;3.640;2023-04-12T11:22:08;20.67;;;3.97;;
74102;SDS011;62853;46.166;3.640;2023-04-12T11:24:55;15.52;;;4.15;;
74102;SDS011;62853;46.166;3.640;2023-04-12T11:27:22;10.98;;;3.05;;
74102;SDS011;62853;46.166;3.640;2023-04-12T11:29:50;9.45;;;2.53;;
74102;SDS011;62853;46.166;3.640;2023-04-12T11:32:19;10.85;;;2.88;;
74102;SDS011;62853;46.166;3.640;2023-04-12T11:34:45;14.45;;;2.90;;
74102;SDS011;62853;46.166;3.640;2023-04-12T11:37:11;8.60;;;2.63;;
74102;SDS011;62853;46.166;3.640;2023-04-12T11:39:38;13.05;;;3.35;;
74102;SDS011;62853;46.166;3.640;2023-04-12T11:42:20;17.08;;;4.05;;
74102;SDS011;62853;46.166;3.640;2023-04-12T11:44:47;12.35;;;4.05;;
74102;SDS011;62853;46.166;3.640;2023-04-12T11:47:14;11.23;;;3.35;;
74102;SDS011;62853;46.166;3.640;2023-04-12T11:49:45;12.40;;;3.90;;
74102;SDS011;62853;46.166;3.640;2023-04-12T11:52:14;10.70;;;3.33;;
74102;SDS011;62853;46.166;3.640;2023-04-12T11:54:45;19.35;;;4.53;;
74102;SDS011;62853;46.166;3.640;2023-04-12T11:57:18;16.42;;;4.32;;
74102;SDS011;62853;46.166;3.640;2023-04-12T11:59:44;12.90;;;4.35;;
74102;SDS011;62853;46.166;3.640;2023-04-12T12:02:12;11.05;;;3.78;;
74102;SDS011;62853;46.166;3.640;2023-04-12T12:04:39;12.85;;;3.63;;
74102;SDS011;62853;46.166;3.640;2023-04-12T12:07:06;17.02;;;4.68;;
74102;SDS011;62853;46.166;3.640;2023-04-12T12:09:36;20.23;;;4.45;;
74102;SDS011;62853;46.166;3.640;2023-04-12T12:12:01;15.77;;;5.07;;
74102;SDS011;62853;46.166;3.640;2023-04-12T12:14:27;14.75;;;3.72;;
74102;SDS011;62853;46.166;3.640;2023-04-12T12:16:57;11.93;;;3.95;;
74102;SDS011;62853;46.166;3.640;2023-04-12T12:19:27;17.27;;;4.00;;
74102;SDS011;62853;46.166;3.640;2023-04-12T12:22:19;11.98;;;4.15;;
74102;SDS011;62853;46.166;3.640;2023-04-12T12:27:18;11.18;;;3.70;;
74102;SDS011;62853;46.166;3.640;2023-04-12T12:29:47;19.00;;;4.18;;
74102;SDS011;62853;46.166;3.640;2023-04-12T12:32:15;17.85;;;4.30;;
74102;SDS011;62853;46.166;3.640;2023-04-12T12:34:48;14.05;;;4.88;;
74102;SDS011;62853;46.166;3.640;2023-04-12T12:37:15;14.65;;;5.07;;
74102;SDS011;62853;46.166;3.640;2023-04-12T12:42:35;14.95;;;5.32;;
74102;SDS011;62853;46.166;3.640;2023-04-12T12:45:07;12.50;;;3.85;;
74102;SDS011;62853;46.166;3.640;2023-04-12T12:47:43;14.27;;;4.10;;
74102;SDS011;62853;46.166;3.640;2023-04-12T12:50:13;10.75;;;4.40;;
74102;SDS011;62853;46.166;3.640;2023-04-12T12:52:42;9.82;;;3.60;;
74102;SDS011;62853;46.166;3.640;2023-04-12T12:55:13;9.10;;;3.60;;
74102;SDS011;62853;46.166;3.640;2023-04-12T12:57:40;7.93;;;4.55;;
74102;SDS011;62853;46.166;3.640;2023-04-12T13:00:13;8.05;;;4.15;;
74102;SDS011;62853;46.166;3.640;2023-04-12T13:02:40;7.97;;;4.10;;
74102;SDS011;62853;46.166;3.640;2023-04-12T13:05:07;12.93;;;4.30;;
74102;SDS011;62853;46.166;3.640;2023-04-12T13:07:36;14.43;;;4.00;;
74102;SDS011;62853;46.166;3.640;2023-04-12T13:10:02;20.80;;;4.63;;
74102;SDS011;62853;46.166;3.640;2023-04-12T13:12:32;15.20;;;5.75;;
74102;SDS011;62853;46.166;3.640;2023-04-12T13:14:57;11.50;;;6.05;;
74102;SDS011;62853;46.166;3.640;2023-04-12T13:17:24;14.73;;;5.05;;
74102;SDS011;62853;46.166;3.640;2023-04-12T13:19:53;16.55;;;4.55;;
74102;SDS011;62853;46.166;3.640;2023-04-12T13:22:18;8.52;;;3.45;;
74102;SDS011;62853;46.166;3.640;2023-04-12T13:24:44;8.02;;;3.33;;
74102;SDS011;62853;46.166;3.640;2023-04-12T13:27:09;8.45;;;2.47;;
74102;SDS011;62853;46.166;3.640;2023-04-12T13:29:36;2.58;;;1.77;;
74102;SDS011;62853;46.166;3.640;2023-04-12T13:32:05;9.02;;;2.35;;
74102;SDS011;62853;46.166;3.640;2023-04-12T13:34:30;3.97;;;1.88;;
74102;SDS011;62853;46.166;3.640;2023-04-12T13:36:56;4.93;;;1.58;;
74102;SDS011;62853;46.166;3.640;2023-04-12T13:39:24;6.07;;;1.98;;
74102;SDS011;62853;46.166;3.640;2023-04-12T13:41:52;4.85;;;1.60;;
74102;SDS011;62853;46.166;3.640;2023-04-12T13:44:18;6.57;;;1.98;;
74102;SDS011;62853;46.166;3.640;2023-04-12T13:46:46;5.82;;;2.17;;
74102;SDS011;62853;46.166;3.640;2023-04-12T13:49:14;7.30;;;2.10;;
74102;SDS011;62853;46.166;3.640;2023-04-12T13:51:39;4.13;;;1.65;;
74102;SDS011;62853;46.166;3.640;2023-04-12T13:54:06;11.05;;;2.80;;
74102;SDS011;62853;46.166;3.640;2023-04-12T13:56:31;9.85;;;2.75;;
74102;SDS011;62853;46.166;3.640;2023-04-12T13:58:59;6.43;;;1.83;;
74102;SDS011;62853;46.166;3.640;2023-04-12T14:01:27;3.97;;;1.98;;
74102;SDS011;62853;46.166;3.640;2023-04-12T14:03:55;6.50;;;2.25;;
74102;SDS011;62853;46.166;3.640;2023-04-12T14:06:21;3.42;;;1.75;;
74102;SDS011;62853;46.166;3.640;2023-04-12T14:08:46;5.63;;;1.75;;
74102;SDS011;62853;46.166;3.640;2023-04-12T14:11:12;3.33;;;1.35;;
74102;SDS011;62853;46.166;3.640;2023-04-12T14:13:40;4.28;;;1.60;;
74102;SDS011;62853;46.166;3.640;2023-04-12T14:16:09;4.35;;;1.83;;
74102;SDS011;62853;46.166;3.640;2023-04-12T14:18:35;5.47;;;1.70;;
74102;SDS011;62853;46.166;3.640;2023-04-12T14:21:00;3.08;;;1.70;;
74102;SDS011;62853;46.166;3.640;2023-04-12T14:23:27;4.97;;;1.90;;
74102;SDS011;62853;46.166;3.640;2023-04-12T14:25:52;4.78;;;2.05;;
74102;SDS011;62853;46.166;3.640;2023-04-12T14:28:20;5.65;;;2.15;;
74102;SDS011;62853;46.166;3.640;2023-04-12T14:30:49;4.10;;;2.03;;
74102;SDS011;62853;46.166;3.640;2023-04-12T14:33:18;6.80;;;2.20;;
74102;SDS011;62853;46.166;3.640;2023-04-12T14:35:44;8.77;;;2.50;;
74102;SDS011;62853;46.166;3.640;2023-04-12T14:38:12;8.93;;;2.42;;
74102;SDS011;62853;46.166;3.640;2023-04-12T14:40:38;6.90;;;2.50;;
74102;SDS011;62853;46.166;3.640;2023-04-12T14:43:03;10.38;;;2.65;;
74102;SDS011;62853;46.166;3.640;2023-04-12T14:45:29;13.38;;;2.85;;
74102;SDS011;62853;46.166;3.640;2023-04-12T14:47:54;14.13;;;3.83;;
74102;SDS011;62853;46.166;3.640;2023-04-12T14:50:20;6.07;;;2.20;;
74102;SDS011;62853;46.166;3.640;2023-04-12T14:52:47;6.03;;;1.98;;
74102;SDS011;62853;46.166;3.640;2023-04-12T14:55:13;4.63;;;1.48;;
74102;SDS011;62853;46.166;3.640;2023-04-12T14:57:39;3.03;;;1.88;;
74102;SDS011;62853;46.166;3.640;2023-04-12T15:00:05;5.55;;;2.00;;
74102;SDS011;62853;46.166;3.640;2023-04-12T15:02:37;7.07;;;1.67;;
74102;SDS011;62853;46.166;3.640;2023-04-12T15:05:03;2.35;;;1.40;;
74102;SDS011;62853;46.166;3.640;2023-04-12T15:07:31;3.30;;;1.45;;
74102;SDS011;62853;46.166;3.640;2023-04-12T15:09:57;3.70;;;1.60;;
74102;SDS011;62853;46.166;3.640;2023-04-12T15:12:23;3.60;;;1.70;;
74102;SDS011;62853;46.166;3.640;2023-04-12T15:14:49;2.30;;;1.45;;
74102;SDS011;62853;46.166;3.640;2023-04-12T15:17:15;4.20;;;1.42;;
74102;SDS011;62853;46.166;3.640;2023-04-12T15:19:40;3.17;;;1.50;;
74102;SDS011;62853;46.166;3.640;2023-04-12T15:22:06;2.67;;;1.45;;
74102;SDS011;62853;46.166;3.640;2023-04-12T15:24:33;3.05;;;1.55;;
74102;SDS011;62853;46.166;3.640;2023-04-12T15:27:03;5.15;;;1.45;;
74102;SDS011;62853;46.166;3.640;2023-04-12T15:29:29;6.38;;;1.25;;